Domov               UVHVVR             MKGP            O straneh              
ZDRAVSTVENO VARSTVO RASTLIN
  MREŽA AGROMET. POSTAJ
 ► PROGNOSTIČNA OBVESTILA
AGROMETEOROLOŠKI PODATKI -
ARSO
OBVLADOVANJE TVEGANJ ZARADI
NEUGODNIH VREMENSKIH RAZMER
  ► NARAVNE NESREČE
  ► SUŠA/MOČA
  ► NAMAKANJE
  ► ŽLED (gozdarstvo)
KARTOGRAFSKI PRIKAZI
SPLETNE POVEZAVE
PROJEKTI IN PUBLIKACIJE

AGROMETEOROLOŠKA MREŽA: VREMENSKE POSTAJE IN FENOLOŠKA OPAZOVANJA

Pregled podatkov za lokacijo Godemarci, meteorološka postaja 37828

Pregled senzorjev na lokaciji

ID Ime Zadnja
vrednost
Datum
zadnje
spremembe
Tip
senzorja
3800 Temperatura 2 m (°C) 7,37 °C 18.1.2018 19:00 50YA
3801 Relativna vlaga 2 m (% RH) 37,88 % RH 18.1.2018 19:30 50YA
3802 Padavine (mm) 0 mm 18.1.2018 19:30 Rain-O-Matic

Pregled podatkov zadnjih 24 ur

Zap.
št.
Datum in čas Godemarci
Padavine Relativna
vlaga
2
m
Temperatura
2
m
0 18.1.2018 19:00 0 35,43 7,37
1 18.1.2018 18:30 0 34,09 7,47
2 18.1.2018 18:00 0 32,99 7,52
3 18.1.2018 17:30 0 31,26 7,77
4 18.1.2018 17:00 0 29,45 8,21
5 18.1.2018 16:30 0 29,21 8,06
6 18.1.2018 16:00 0 31,58 8,01
7 18.1.2018 15:30 0 31,72 7,96
8 18.1.2018 15:00 0 31,14 8,11
9 18.1.2018 14:30 0 32,14 7,86
10 18.1.2018 14:00 0 35,12 6,72
11 18.1.2018 13:30 0 35,9 6,23
12 18.1.2018 13:00 0 36,58 6,11
13 18.1.2018 12:30 0 36,53 5,98
14 18.1.2018 12:00 0 40,63 5,4
15 18.1.2018 11:30 0 42,83 5,1
16 18.1.2018 11:00 0 43,1 4,91
17 18.1.2018 10:30 0 45,1 5,4
18 18.1.2018 10:00 0 57,34 4,1
19 18.1.2018 09:30 0 62,76 3,15
20 18.1.2018 09:00 0 70,04 1,86
21 18.1.2018 08:30 0 81,56 -1,59
22 18.1.2018 08:00 0 87,23 -3,27
23 18.1.2018 07:30 0 85,1 -3,05
24 18.1.2018 07:00 0 79,1 -2,05
25 18.1.2018 06:30 0 69,4 -0,37
26 18.1.2018 06:00 0 62,91 1,17
27 18.1.2018 05:30 0 61,93 1,54
28 18.1.2018 05:00 0 62,61 1,66
29 18.1.2018 04:30 0 64,64 1,47
30 18.1.2018 04:00 0 64,69 1,42
31 18.1.2018 03:30 0 65,1 1,37
32 18.1.2018 03:00 0 63,22 1,81
33 18.1.2018 02:30 0 61,95 1,64
34 18.1.2018 02:00 0 68,06 -0,07
35 18.1.2018 01:30 0 89,45 -4,1
36 18.1.2018 01:00 0 90,31 -4,2
37 18.1.2018 00:30 0 89,11 -4,1
38 18.1.2018 00:00 0 89,47 -3,88
39 17.1.2018 23:30 0 90,55 -3,59
40 17.1.2018 23:00 0 87,59 -3,13
41 17.1.2018 22:30 0 85,08 -2,93
42 17.1.2018 22:00 0 79,02 -2,15
43 17.1.2018 21:30 0 65,03 -0,32
44 17.1.2018 21:00 0 51,77 1,17
© 2011 Ministrstvo za kmetijstvo, gozdarstvo in prehrano. Vse pravice pridržane.